Time;durP1;ratioP1;P1;durP2;ratioP2;P2;SDS_P1;SDS_P2;PMS_P1;PMS_P2;Temp;Humidity;BMP_temperature;BMP_pressure;BME280_temperature;BME280_humidity;BME280_pressure;Samples;Min_cycle;Max_cycle;Signal;HPM_P1;HPM_P2
2022/05/15 00:03:27;;;;;;;10.13;3.95;;;;;;;;;;8393304;28;20063;-52
2022/05/15 00:07:27;;;;;;;10.70;3.83;;;;;;;;;;8392859;28;20024;-51
2022/05/15 00:11:27;;;;;;;28.05;12.48;;;;;;;;;;8393248;28;20036;-51
2022/05/15 00:15:29;;;;;;;21.35;9.35;;;;;;;;;;8392298;28;20456;-51
2022/05/15 00:19:29;;;;;;;25.75;12.32;;;;;;;;;;8392656;28;20450;-50
2022/05/15 00:23:29;;;;;;;36.75;16.50;;;;;;;;;;8391341;28;20036;-54
2022/05/15 00:27:29;;;;;;;17.52;7.25;;;;;;;;;;8391468;28;20021;-55
2022/05/15 00:31:30;;;;;;;10.38;4.32;;;;;;;;;;8381491;28;20028;-50
2022/05/15 00:35:30;;;;;;;12.47;3.40;;;;;;;;;;8392101;28;20391;-54
2022/05/15 00:39:30;;;;;;;11.30;4.73;;;;;;;;;;8392547;28;20025;-50
2022/05/15 00:43:36;;;;;;;11.00;3.70;;;;;;;;;;8371289;28;20064;-50
2022/05/15 00:47:36;;;;;;;12.32;3.40;;;;;;;;;;8384528;28;20375;-53
2022/05/15 00:51:45;;;;;;;7.73;3.73;;;;;;;;;;8376836;28;20032;-50
2022/05/15 00:55:48;;;;;;;10.57;4.18;;;;;;;;;;8361400;28;20476;-56
2022/05/15 00:59:57;;;;;;;7.10;3.40;;;;;;;;;;8369900;28;20532;-54
2022/05/15 01:03:59;;;;;;;15.43;4.38;;;;;;;;;;8336734;28;20033;-53
2022/05/15 01:07:59;;;;;;;16.63;4.93;;;;;;;;;;8368151;28;20418;-53
2022/05/15 01:12:01;;;;;;;22.37;7.17;;;;;;;;;;8358947;28;20102;-52
2022/05/15 01:16:01;;;;;;;;;;;;;;;;;;8348204;28;20083;-51
2022/05/15 01:20:06;;;;;;;20.30;5.80;;;;;;;;;;8349171;28;19915;-50
2022/05/15 01:24:08;;;;;;;13.32;4.55;;;;;;;;;;8364018;28;20069;-53
2022/05/15 01:28:13;;;;;;;16.98;6.13;;;;;;;;;;8336405;28;20379;-50
2022/05/15 01:32:13;;;;;;;10.93;4.50;;;;;;;;;;8360313;28;20021;-50
2022/05/15 01:36:14;;;;;;;11.40;3.43;;;;;;;;;;8350605;28;20049;-50
2022/05/15 01:40:15;;;;;;;11.53;4.47;;;;;;;;;;8351950;28;20113;-50
2022/05/15 01:44:15;;;;;;;14.03;5.17;;;;;;;;;;8336499;28;20053;-51
2022/05/15 01:48:15;;;;;;;17.20;6.25;;;;;;;;;;8335878;28;20487;-51
2022/05/15 01:52:16;;;;;;;15.25;5.35;;;;;;;;;;8368129;28;20036;-53
2022/05/15 01:56:16;;;;;;;17.43;5.00;;;;;;;;;;8339042;28;20096;-52
2022/05/15 02:00:19;;;;;;;121.13;10.80;;;;;;;;;;8335524;28;20537;-52
2022/05/15 02:04:19;;;;;;;99.40;13.00;;;;;;;;;;8368142;28;20036;-52
2022/05/15 02:08:20;;;;;;;32.95;9.55;;;;;;;;;;8345175;28;20029;-52
2022/05/15 02:12:20;;;;;;;26.25;8.73;;;;;;;;;;8367919;28;20028;-53
2022/05/15 02:16:20;;;;;;;24.92;8.45;;;;;;;;;;8349187;28;20032;-50
2022/05/15 02:20:20;;;;;;;18.40;7.82;;;;;;;;;;8353252;28;20542;-49
2022/05/15 02:24:20;;;;;;;25.00;7.57;;;;;;;;;;8348585;28;20488;-50
2022/05/15 02:28:21;;;;;;;22.05;6.25;;;;;;;;;;8343809;28;20100;-51
2022/05/15 02:32:21;;;;;;;38.83;7.40;;;;;;;;;;8365618;28;20013;-50
2022/05/15 02:36:21;;;;;;;22.13;7.05;;;;;;;;;;8335233;28;20036;-51
2022/05/15 02:40:22;;;;;;;21.90;5.22;;;;;;;;;;8356503;28;20032;-51
2022/05/15 02:44:22;;;;;;;60.55;6.28;;;;;;;;;;8333405;28;20132;-51
2022/05/15 02:52:41;;;;;;;23.67;4.57;;;;;;;;;;8347124;28;20044;-51
2022/05/15 02:56:41;;;;;;;25.25;4.03;;;;;;;;;;8340648;28;20456;-52
2022/05/15 03:00:41;;;;;;;22.92;4.78;;;;;;;;;;8350556;28;20060;-51
2022/05/15 03:04:41;;;;;;;6.28;4.05;;;;;;;;;;8364879;28;20064;-52
2022/05/15 03:08:43;;;;;;;15.90;7.10;;;;;;;;;;8365645;28;20112;-55
2022/05/15 03:12:44;;;;;;;13.77;6.22;;;;;;;;;;8333151;28;20057;-52
2022/05/15 03:16:44;;;;;;;13.17;6.90;;;;;;;;;;8357273;28;20086;-54
2022/05/15 03:20:44;;;;;;;12.68;6.18;;;;;;;;;;8356533;28;20435;-51
2022/05/15 03:24:44;;;;;;;13.95;5.75;;;;;;;;;;8343762;28;20460;-54
2022/05/15 03:28:44;;;;;;;13.52;6.10;;;;;;;;;;8344984;28;20073;-51
2022/05/15 03:32:45;;;;;;;33.17;6.72;;;;;;;;;;8363734;28;20074;-51
2022/05/15 03:36:46;;;;;;;29.48;5.30;;;;;;;;;;8365631;28;20036;-51
2022/05/15 03:40:46;;;;;;;15.43;4.72;;;;;;;;;;8353211;28;20497;-53
2022/05/15 03:44:46;;;;;;;11.80;4.80;;;;;;;;;;8332468;28;20058;-50
2022/05/15 03:48:47;;;;;;;15.27;5.53;;;;;;;;;;8333739;28;20041;-54
2022/05/15 03:52:47;;;;;;;10.77;5.35;;;;;;;;;;8347034;28;20464;-50
2022/05/15 03:56:50;;;;;;;8.38;4.60;;;;;;;;;;8358656;28;20460;-51
2022/05/15 04:00:50;;;;;;;10.45;5.10;;;;;;;;;;8338208;28;20101;-52
2022/05/15 04:04:50;;;;;;;18.92;4.70;;;;;;;;;;8360116;28;20032;-52
2022/05/15 04:08:51;;;;;;;30.80;4.63;;;;;;;;;;8350293;28;20457;-52
2022/05/15 04:12:51;;;;;;;6.83;4.53;;;;;;;;;;8338020;28;20013;-50
2022/05/15 04:16:51;;;;;;;12.40;5.80;;;;;;;;;;8347241;28;20075;-53
2022/05/15 04:20:52;;;;;;;24.57;7.67;;;;;;;;;;8340594;28;20025;-50
2022/05/15 04:24:52;;;;;;;26.38;7.53;;;;;;;;;;8358563;28;20036;-57
2022/05/15 04:28:52;;;;;;;19.17;6.97;;;;;;;;;;8332077;28;20021;-50
2022/05/15 04:32:52;;;;;;;31.50;7.65;;;;;;;;;;8348291;28;20030;-51
2022/05/15 04:36:52;;;;;;;26.37;7.20;;;;;;;;;;8337916;28;20060;-50
2022/05/15 04:40:53;;;;;;;33.33;7.88;;;;;;;;;;8348960;28;20054;-55
2022/05/15 04:44:53;;;;;;;26.67;7.63;;;;;;;;;;8364787;28;20061;-52
2022/05/15 04:48:53;;;;;;;27.58;7.38;;;;;;;;;;8360233;28;20029;-52
2022/05/15 04:52:53;;;;;;;24.77;6.25;;;;;;;;;;8338202;28;20017;-52
2022/05/15 04:56:53;;;;;;;19.70;6.55;;;;;;;;;;8370856;28;20028;-51
2022/05/15 05:00:54;;;;;;;20.40;5.78;;;;;;;;;;8338210;28;20044;-51
2022/05/15 05:04:55;;;;;;;22.30;6.33;;;;;;;;;;8353071;28;20517;-51
2022/05/15 05:08:56;;;;;;;18.52;5.82;;;;;;;;;;8336595;28;20017;-53
2022/05/15 05:12:56;;;;;;;18.38;6.00;;;;;;;;;;8363301;28;20121;-51
2022/05/15 05:16:56;;;;;;;18.27;6.88;;;;;;;;;;8351389;28;20068;-52
2022/05/15 05:20:56;;;;;;;18.88;6.35;;;;;;;;;;8344988;28;20032;-51
2022/05/15 05:24:56;;;;;;;20.30;8.47;;;;;;;;;;8368335;28;20035;-50
2022/05/15 05:28:56;;;;;;;27.27;7.85;;;;;;;;;;8353943;28;20029;-58
2022/05/15 05:32:57;;;;;;;17.85;7.18;;;;;;;;;;8381134;28;20044;-59
2022/05/15 05:36:57;;;;;;;22.53;7.23;;;;;;;;;;8380536;28;20047;-54
2022/05/15 05:40:57;;;;;;;16.92;5.28;;;;;;;;;;8369146;28;20031;-53
2022/05/15 05:44:58;;;;;;;22.10;5.43;;;;;;;;;;8376267;28;20049;-53
2022/05/15 05:48:58;;;;;;;15.80;4.97;;;;;;;;;;8382125;28;20456;-54
2022/05/15 05:52:58;;;;;;;21.30;4.72;;;;;;;;;;8396127;28;20471;-54
2022/05/15 05:56:59;;;;;;;24.05;5.30;;;;;;;;;;8382223;28;20375;-53
2022/05/15 06:00:59;;;;;;;15.53;5.30;;;;;;;;;;8376422;28;20387;-54
2022/05/15 06:04:59;;;;;;;22.70;4.90;;;;;;;;;;8399253;28;20459;-51
2022/05/15 06:08:59;;;;;;;22.55;5.85;;;;;;;;;;8369434;28;20044;-50
2022/05/15 06:12:59;;;;;;;19.20;4.88;;;;;;;;;;8371104;28;20036;-52
2022/05/15 06:17:00;;;;;;;18.75;4.57;;;;;;;;;;8381518;28;20043;-49
2022/05/15 06:21:00;;;;;;;15.93;4.22;;;;;;;;;;8382264;28;20082;-51
2022/05/15 06:25:00;;;;;;;18.35;4.97;;;;;;;;;;8368164;28;20399;-54
2022/05/15 06:29:00;;;;;;;18.60;4.00;;;;;;;;;;8398176;28;20425;-49
2022/05/15 06:33:00;;;;;;;18.13;4.35;;;;;;;;;;8367891;28;20110;-50
2022/05/15 06:37:01;;;;;;;17.42;5.45;;;;;;;;;;8395047;28;20032;-47
2022/05/15 06:41:06;;;;;;;20.77;4.00;;;;;;;;;;8379791;28;20025;-50
2022/05/15 06:45:06;;;;;;;13.75;4.10;;;;;;;;;;8381507;28;20067;-50
2022/05/15 06:49:07;;;;;;;17.07;4.10;;;;;;;;;;8398123;28;20495;-49
2022/05/15 06:53:13;;;;;;;17.30;4.13;;;;;;;;;;8397625;28;20050;-49
2022/05/15 06:57:28;;;;;;;15.27;3.55;;;;;;;;;;8367838;28;20126;-51
2022/05/15 07:01:29;;;;;;;17.45;3.65;;;;;;;;;;8367778;28;20027;-53
2022/05/15 07:05:31;;;;;;;15.87;4.20;;;;;;;;;;8365866;28;20045;-52
2022/05/15 07:09:31;;;;;;;23.05;5.20;;;;;;;;;;8367293;28;20025;-48
2022/05/15 07:13:32;;;;;;;18.27;4.05;;;;;;;;;;8379724;28;20028;-49
2022/05/15 07:17:32;;;;;;;18.43;4.43;;;;;;;;;;8366981;28;20025;-52
2022/05/15 07:21:32;;;;;;;15.00;3.78;;;;;;;;;;8371716;28;20253;-52
2022/05/15 07:25:32;;;;;;;17.92;3.75;;;;;;;;;;8382636;28;20472;-53
2022/05/15 07:29:36;;;;;;;11.02;3.55;;;;;;;;;;8375029;28;20036;-52
2022/05/15 07:33:36;;;;;;;15.10;3.40;;;;;;;;;;8397728;28;20496;-52
2022/05/15 07:37:36;;;;;;;13.70;3.47;;;;;;;;;;8391645;28;20021;-49
2022/05/15 07:41:37;;;;;;;18.40;4.63;;;;;;;;;;8365544;28;20100;-48
2022/05/15 07:45:37;;;;;;;15.93;4.00;;;;;;;;;;8365967;28;20045;-49
2022/05/15 07:49:38;;;;;;;15.30;3.40;;;;;;;;;;8388292;28;20017;-51
2022/05/15 07:53:39;;;;;;;18.37;4.30;;;;;;;;;;8386024;28;20052;-56
2022/05/15 07:57:39;;;;;;;14.37;3.50;;;;;;;;;;8374486;28;20035;-50
2022/05/15 08:01:40;;;;;;;13.95;3.97;;;;;;;;;;8397489;28;20592;-49
2022/05/15 08:09:59;;;;;;;18.02;3.97;;;;;;;;;;8382598;28;20070;-56
2022/05/15 08:14:02;;;;;;;19.67;4.03;;;;;;;;;;8390521;28;20037;-57
2022/05/15 08:26:41;;;;;;;12.25;3.17;;;;;;;;;;8402627;28;20075;-50
2022/05/15 08:30:42;;;;;;;17.02;3.80;;;;;;;;;;8379638;28;20032;-50
2022/05/15 08:34:42;;;;;;;14.73;3.60;;;;;;;;;;8389457;28;20486;-56
2022/05/15 08:38:43;;;;;;;16.70;3.85;;;;;;;;;;8378220;28;20033;-53
2022/05/15 08:42:54;;;;;;;15.30;4.43;;;;;;;;;;8394948;28;20040;-52
2022/05/15 08:47:05;;;;;;;14.02;4.05;;;;;;;;;;8385236;28;20059;-53
2022/05/15 08:51:05;;;;;;;;;;;;;;;;;;8383264;28;20043;-52
2022/05/15 08:55:14;;;;;;;10.15;3.50;;;;;;;;;;8385883;28;19908;-53
2022/05/15 08:59:20;;;;;;;10.43;3.25;;;;;;;;;;8385234;28;20040;-52
2022/05/15 09:03:22;;;;;;;9.40;3.70;;;;;;;;;;8385989;28;20028;-50
2022/05/15 09:07:28;;;;;;;13.00;3.75;;;;;;;;;;8386080;28;20045;-57
2022/05/15 09:11:35;;;;;;;14.77;3.85;;;;;;;;;;8376187;28;20029;-49
2022/05/15 09:15:38;;;;;;;11.25;3.45;;;;;;;;;;8376673;28;20028;-51
2022/05/15 09:19:38;;;;;;;13.50;3.70;;;;;;;;;;8388965;28;20052;-51
2022/05/15 09:23:41;;;;;;;12.52;3.70;;;;;;;;;;8390540;28;20036;-50
2022/05/15 09:27:56;;;;;;;14.07;3.70;;;;;;;;;;8377000;28;20028;-54
2022/05/15 09:31:57;;;;;;;10.77;3.60;;;;;;;;;;8368398;28;20028;-51
2022/05/15 09:36:15;;;;;;;9.93;3.90;;;;;;;;;;8368320;28;20068;-54
2022/05/15 09:40:16;;;;;;;10.70;4.07;;;;;;;;;;8368075;28;20029;-49
2022/05/15 09:44:26;;;;;;;8.95;3.70;;;;;;;;;;8368222;28;20063;-52
2022/05/15 09:48:32;;;;;;;7.65;3.33;;;;;;;;;;8368748;28;20029;-56
2022/05/15 09:52:38;;;;;;;8.80;3.20;;;;;;;;;;8368694;28;20602;-51
2022/05/15 09:56:38;;;;;;;9.80;3.70;;;;;;;;;;8368626;28;20052;-52
2022/05/15 10:00:38;;;;;;;10.15;3.97;;;;;;;;;;8368164;28;19913;-54
2022/05/15 10:04:38;;;;;;;8.00;3.28;;;;;;;;;;8368287;28;20017;-53
2022/05/15 10:08:39;;;;;;;9.87;3.50;;;;;;;;;;8368158;28;20024;-55
2022/05/15 10:12:40;;;;;;;7.70;3.10;;;;;;;;;;8368026;28;20021;-54
2022/05/15 10:16:45;;;;;;;8.25;3.00;;;;;;;;;;8368001;28;20035;-51
2022/05/15 10:20:47;;;;;;;8.27;3.30;;;;;;;;;;8367823;28;20068;-53
2022/05/15 10:24:48;;;;;;;6.90;3.20;;;;;;;;;;8367627;28;20024;-54
2022/05/15 10:28:53;;;;;;;8.55;3.50;;;;;;;;;;8366686;28;20086;-54
2022/05/15 10:33:11;;;;;;;7.00;3.08;;;;;;;;;;8367703;28;20071;-56
2022/05/15 10:37:30;;;;;;;8.05;3.10;;;;;;;;;;8368178;28;20032;-53
2022/05/15 10:41:30;;;;;;;8.20;3.07;;;;;;;;;;8367175;28;20031;-51
2022/05/15 10:45:40;;;;;;;5.90;2.83;;;;;;;;;;8366715;28;20486;-51
2022/05/15 10:49:59;;;;;;;6.95;2.90;;;;;;;;;;8367297;28;20028;-54
2022/05/15 10:58:35;;;;;;;6.68;2.85;;;;;;;;;;8366685;28;20108;-54
2022/05/15 11:02:42;;;;;;;7.53;3.00;;;;;;;;;;8366550;28;20100;-53
2022/05/15 11:06:42;;;;;;;8.57;3.17;;;;;;;;;;8366469;28;20020;-51
2022/05/15 11:11:01;;;;;;;9.05;3.22;;;;;;;;;;8366290;28;20031;-52
2022/05/15 11:15:04;;;;;;;8.05;3.72;;;;;;;;;;8366143;28;20047;-51
2022/05/15 11:19:11;;;;;;;9.10;3.22;;;;;;;;;;8365981;28;20029;-54
2022/05/15 11:23:15;;;;;;;7.50;2.97;;;;;;;;;;8365953;28;20364;-53
2022/05/15 11:27:16;;;;;;;6.88;2.90;;;;;;;;;;8364366;28;20053;-55
2022/05/15 11:31:28;;;;;;;8.70;3.22;;;;;;;;;;8366008;28;20025;-53
2022/05/15 11:35:30;;;;;;;10.93;3.40;;;;;;;;;;8366070;28;20029;-51
2022/05/15 11:39:31;;;;;;;8.82;3.00;;;;;;;;;;8365691;28;20021;-51
2022/05/15 11:43:33;;;;;;;9.52;2.97;;;;;;;;;;8365133;28;20055;-53
2022/05/15 11:47:35;;;;;;;7.88;3.30;;;;;;;;;;8365517;28;20090;-54
2022/05/15 11:51:35;;;;;;;9.63;3.20;;;;;;;;;;8365159;28;20071;-50
2022/05/15 11:55:35;;;;;;;11.25;3.20;;;;;;;;;;8365115;28;20041;-55
2022/05/15 11:59:36;;;;;;;;;;;;;;;;;;8365747;28;20025;-51
2022/05/15 12:03:39;;;;;;;10.40;3.63;;;;;;;;;;8365237;28;19905;-54
2022/05/15 12:07:51;;;;;;;11.00;3.30;;;;;;;;;;8365879;28;20074;-54
2022/05/15 12:11:53;;;;;;;10.00;3.38;;;;;;;;;;8365119;28;20013;-53
2022/05/15 12:16:13;;;;;;;11.40;3.20;;;;;;;;;;8365076;28;20033;-50
2022/05/15 12:20:15;;;;;;;9.88;2.58;;;;;;;;;;8364773;28;20039;-51
2022/05/15 12:24:28;;;;;;;13.13;3.10;;;;;;;;;;8364931;28;20107;-51
2022/05/15 12:31:16;;;;;;;9.25;3.17;;;;;;;;;;8564236;27;20449;-51
2022/05/15 12:35:33;;;;;;;7.80;2.50;;;;;;;;;;8529686;27;20058;-51
2022/05/15 12:39:35;;;;;;;10.70;2.55;;;;;;;;;;8529599;27;20031;-48
2022/05/15 12:43:48;;;;;;;6.60;1.90;;;;;;;;;;8529343;27;20098;-48
2022/05/15 12:48:17;;;;;;;7.88;2.38;;;;;;;;;;8529297;27;20031;-51
2022/05/15 12:52:19;;;;;;;9.68;2.40;;;;;;;;;;8507001;27;20042;-50
2022/05/15 12:56:24;;;;;;;8.30;2.47;;;;;;;;;;8528918;27;20485;-53
2022/05/15 13:00:29;;;;;;;5.70;2.15;;;;;;;;;;8528909;27;20026;-61
2022/05/15 13:04:29;;;;;;;6.05;2.10;;;;;;;;;;8528823;27;20033;-55
2022/05/15 13:08:44;;;;;;;5.70;1.77;;;;;;;;;;8528389;27;20393;-53
2022/05/15 13:12:55;;;;;;;8.52;2.13;;;;;;;;;;8528452;27;20018;-50
2022/05/15 13:16:55;;;;;;;6.88;1.83;;;;;;;;;;8528385;27;20029;-50
2022/05/15 13:21:04;;;;;;;7.17;1.90;;;;;;;;;;8515214;27;20032;-56
2022/05/15 13:25:05;;;;;;;5.10;1.75;;;;;;;;;;8494012;28;20022;-50
2022/05/15 13:29:06;;;;;;;4.70;1.75;;;;;;;;;;8493107;28;20055;-50
2022/05/15 13:33:09;;;;;;;7.85;1.85;;;;;;;;;;8493706;28;20023;-52
2022/05/15 13:37:27;;;;;;;4.28;1.30;;;;;;;;;;8493438;28;20029;-50
2022/05/15 13:45:49;;;;;;;6.07;1.75;;;;;;;;;;8470860;28;20066;-51
2022/05/15 13:49:52;;;;;;;3.97;1.40;;;;;;;;;;8470341;28;20034;-50
2022/05/15 13:54:07;;;;;;;4.47;1.42;;;;;;;;;;8470244;28;20024;-51
2022/05/15 13:58:07;;;;;;;4.28;1.60;;;;;;;;;;8470057;28;20101;-53
2022/05/15 14:02:11;;;;;;;4.65;1.50;;;;;;;;;;8470022;28;20015;-54
2022/05/15 14:06:12;;;;;;;4.60;1.73;;;;;;;;;;8469982;28;20023;-51
2022/05/15 14:10:16;;;;;;;8.38;1.38;;;;;;;;;;8469635;28;20039;-50
2022/05/15 14:14:16;;;;;;;4.25;1.55;;;;;;;;;;8469659;28;20107;-50
2022/05/15 14:18:19;;;;;;;3.87;1.53;;;;;;;;;;8469809;28;20038;-51
2022/05/15 14:22:20;;;;;;;6.85;1.88;;;;;;;;;;8469317;28;20035;-52
2022/05/15 14:26:22;;;;;;;7.60;1.70;;;;;;;;;;8469297;28;20366;-51
2022/05/15 14:30:22;;;;;;;5.07;1.63;;;;;;;;;;8433570;28;20052;-51
2022/05/15 14:34:23;;;;;;;3.22;1.65;;;;;;;;;;8435244;28;20102;-52
2022/05/15 14:38:23;;;;;;;3.72;1.33;;;;;;;;;;8435130;28;20030;-51
2022/05/15 14:42:24;;;;;;;6.03;1.57;;;;;;;;;;8435056;28;20028;-51
2022/05/15 14:46:27;;;;;;;4.50;1.45;;;;;;;;;;8433591;28;20020;-54
2022/05/15 14:50:29;;;;;;;5.85;1.88;;;;;;;;;;8434265;28;20064;-53
2022/05/15 14:54:30;;;;;;;5.28;1.42;;;;;;;;;;8433901;28;20031;-54
2022/05/15 14:58:31;;;;;;;3.28;1.38;;;;;;;;;;8434520;28;20430;-53
2022/05/15 15:02:34;;;;;;;4.63;1.50;;;;;;;;;;8434521;28;20024;-50
2022/05/15 15:06:34;;;;;;;5.47;1.92;;;;;;;;;;8434079;28;20023;-51
2022/05/15 15:10:34;;;;;;;3.60;1.52;;;;;;;;;;8434155;28;20102;-51
2022/05/15 15:14:34;;;;;;;5.50;1.67;;;;;;;;;;8433964;28;20366;-53
2022/05/15 15:18:35;;;;;;;3.50;1.42;;;;;;;;;;8433588;28;20032;-55
2022/05/15 15:22:35;;;;;;;5.83;1.90;;;;;;;;;;8433664;28;20023;-51
2022/05/15 15:26:36;;;;;;;5.40;1.30;;;;;;;;;;8433672;28;20016;-52
2022/05/15 15:30:36;;;;;;;4.07;1.43;;;;;;;;;;8459288;28;20052;-52
2022/05/15 15:34:36;;;;;;;4.50;1.80;;;;;;;;;;8467048;28;20016;-51
2022/05/15 15:38:36;;;;;;;4.35;1.30;;;;;;;;;;8466938;28;20034;-52
2022/05/15 15:42:36;;;;;;;7.40;1.48;;;;;;;;;;8466852;28;20375;-53
2022/05/15 15:46:36;;;;;;;5.15;1.60;;;;;;;;;;8466716;28;20027;-51
2022/05/15 15:50:37;;;;;;;3.55;1.63;;;;;;;;;;8466527;28;20110;-52
2022/05/15 15:54:38;;;;;;;5.43;1.83;;;;;;;;;;8466506;28;20065;-52
2022/05/15 15:58:38;;;;;;;4.70;1.45;;;;;;;;;;8466527;28;20369;-50
2022/05/15 16:02:39;;;;;;;3.20;1.10;;;;;;;;;;8466090;28;20030;-55
2022/05/15 16:06:39;;;;;;;;;;;;;;;;;;8466795;28;20020;-55
2022/05/15 16:10:41;;;;;;;5.60;1.60;;;;;;;;;;8466365;28;19911;-56
2022/05/15 16:14:42;;;;;;;3.13;1.52;;;;;;;;;;8465923;28;20377;-55
2022/05/15 16:18:42;;;;;;;3.80;1.30;;;;;;;;;;8466045;28;20027;-57
2022/05/15 16:22:42;;;;;;;6.10;1.80;;;;;;;;;;8465593;28;20024;-57
2022/05/15 16:26:45;;;;;;;5.50;1.73;;;;;;;;;;8465789;28;20485;-58
2022/05/15 16:30:45;;;;;;;4.82;1.73;;;;;;;;;;8465406;28;20091;-56
2022/05/15 16:34:45;;;;;;;4.67;1.63;;;;;;;;;;8447277;28;20347;-57
2022/05/15 16:38:46;;;;;;;3.80;1.15;;;;;;;;;;8465340;28;20016;-57
2022/05/15 16:42:46;;;;;;;4.80;1.40;;;;;;;;;;8465551;28;20024;-57
2022/05/15 16:46:46;;;;;;;3.63;1.20;;;;;;;;;;8465489;28;20347;-56
2022/05/15 16:50:47;;;;;;;3.38;1.45;;;;;;;;;;8447448;28;20102;-58
2022/05/15 16:54:47;;;;;;;7.43;1.58;;;;;;;;;;8465405;28;20047;-55
2022/05/15 16:58:47;;;;;;;3.17;1.10;;;;;;;;;;8465114;28;20028;-58
2022/05/15 17:02:48;;;;;;;7.68;1.40;;;;;;;;;;8465610;28;20020;-57
2022/05/15 17:06:48;;;;;;;4.37;1.63;;;;;;;;;;8465216;28;20027;-56
2022/05/15 17:10:48;;;;;;;5.85;1.42;;;;;;;;;;8465329;28;20482;-59
2022/05/15 17:14:48;;;;;;;2.47;1.20;;;;;;;;;;8465386;28;20023;-59
2022/05/15 17:18:49;;;;;;;3.03;1.40;;;;;;;;;;8470732;28;20019;-57
2022/05/15 17:22:49;;;;;;;5.40;1.30;;;;;;;;;;8470933;28;20030;-60
2022/05/15 17:26:49;;;;;;;3.45;1.67;;;;;;;;;;8470960;28;20446;-60
2022/05/15 17:35:10;;;;;;;5.72;1.73;;;;;;;;;;8470890;28;20117;-57
2022/05/15 17:39:11;;;;;;;7.82;2.33;;;;;;;;;;8470426;28;20024;-58
2022/05/15 17:43:11;;;;;;;6.70;1.83;;;;;;;;;;8460979;28;20027;-55
2022/05/15 17:47:11;;;;;;;5.70;1.73;;;;;;;;;;8441915;28;20051;-60
2022/05/15 17:51:12;;;;;;;5.07;1.90;;;;;;;;;;8441896;28;20096;-58
2022/05/15 17:55:12;;;;;;;6.28;2.05;;;;;;;;;;8469024;28;20382;-54
2022/05/15 21:02:07;;;;;;;11.95;2.83;;;;;;;;;;8383624;28;20109;-66
2022/05/15 21:06:08;;;;;;;6.13;2.40;;;;;;;;;;8404596;28;20029;-64
2022/05/15 21:10:09;;;;;;;6.00;2.57;;;;;;;;;;8404387;28;20021;-62
2022/05/15 21:14:09;;;;;;;9.03;2.90;;;;;;;;;;8404362;28;20060;-63
2022/05/15 21:18:11;;;;;;;7.63;2.30;;;;;;;;;;8404159;28;20025;-66
2022/05/15 21:22:11;;;;;;;5.22;2.00;;;;;;;;;;8403810;28;20488;-67
2022/05/15 21:26:11;;;;;;;6.57;2.70;;;;;;;;;;8404023;28;20016;-65
2022/05/15 21:30:11;;;;;;;9.33;2.67;;;;;;;;;;8403661;28;20111;-62
2022/05/15 21:34:12;;;;;;;10.90;2.33;;;;;;;;;;8403702;28;20111;-66
2022/05/15 21:46:50;;;;;;;7.13;2.05;;;;;;;;;;8400545;28;20027;-64
2022/05/15 21:50:50;;;;;;;5.10;2.50;;;;;;;;;;8402415;28;20032;-62
2022/05/15 21:54:50;;;;;;;8.15;2.25;;;;;;;;;;8401173;28;20110;-61
2022/05/15 22:03:09;;;;;;;5.93;2.22;;;;;;;;;;8401541;28;20132;-60
2022/05/15 22:07:09;;;;;;;5.95;2.03;;;;;;;;;;8402167;28;20024;-62
2022/05/15 22:11:10;;;;;;;9.15;2.55;;;;;;;;;;8401992;28;20036;-63
2022/05/15 22:15:10;;;;;;;5.10;2.27;;;;;;;;;;8400659;28;20459;-66
2022/05/15 22:19:10;;;;;;;7.63;2.45;;;;;;;;;;8392835;28;20078;-65
2022/05/15 22:23:11;;;;;;;5.80;2.20;;;;;;;;;;8396261;28;20024;-65
2022/05/15 22:27:11;;;;;;;9.15;2.97;;;;;;;;;;8385857;28;20044;-64
2022/05/15 22:31:11;;;;;;;8.10;2.65;;;;;;;;;;8378240;28;20021;-65
2022/05/15 22:35:12;;;;;;;9.07;2.53;;;;;;;;;;8386474;28;20024;-65
2022/05/15 22:39:12;;;;;;;9.07;2.97;;;;;;;;;;8375883;28;20486;-65
2022/05/15 22:43:12;;;;;;;8.30;2.83;;;;;;;;;;8368446;28;20381;-65
2022/05/15 22:47:13;;;;;;;8.47;2.70;;;;;;;;;;8368226;28;20518;-62
2022/05/15 22:51:14;;;;;;;7.00;2.87;;;;;;;;;;8371246;28;20032;-61
2022/05/15 22:55:15;;;;;;;7.80;2.63;;;;;;;;;;8416717;28;20037;-62
2022/05/15 22:59:15;;;;;;;5.27;2.30;;;;;;;;;;8384500;28;20035;-61
2022/05/15 23:03:16;;;;;;;5.43;2.30;;;;;;;;;;8400524;28;20043;-61
2022/05/15 23:07:32;;;;;;;5.68;2.42;;;;;;;;;;8400341;28;20021;-61
2022/05/15 23:11:32;;;;;;;8.63;2.95;;;;;;;;;;8382598;28;20476;-62
2022/05/15 23:15:32;;;;;;;5.38;2.33;;;;;;;;;;8390494;28;20111;-62
2022/05/15 23:19:33;;;;;;;3.92;1.65;;;;;;;;;;8400077;28;20028;-62
2022/05/15 23:23:33;;;;;;;4.85;2.28;;;;;;;;;;8399203;28;20417;-61
2022/05/15 23:27:33;;;;;;;5.00;2.10;;;;;;;;;;8399384;28;20379;-62
2022/05/15 23:31:33;;;;;;;3.35;1.83;;;;;;;;;;8396940;28;20059;-62
2022/05/15 23:35:33;;;;;;;3.63;1.80;;;;;;;;;;8376920;28;20525;-62
2022/05/15 23:39:33;;;;;;;6.03;1.80;;;;;;;;;;8366724;28;20447;-61
2022/05/15 23:43:34;;;;;;;5.27;1.80;;;;;;;;;;8389306;28;20013;-61
2022/05/15 23:47:34;;;;;;;3.92;1.73;;;;;;;;;;8397907;28;20016;-61
2022/05/15 23:51:34;;;;;;;5.17;1.63;;;;;;;;;;8398718;28;20024;-61
2022/05/15 23:55:34;;;;;;;3.45;1.20;;;;;;;;;;8398686;28;20024;-61
2022/05/15 23:59:35;;;;;;;3.55;1.50;;;;;;;;;;8397800;28;20052;-61
